createdAt,value
2023-05-12T00:00:15.222Z,74.90
2023-05-12T00:02:44.754Z,75.70
2023-05-12T00:05:11.875Z,74.80
2023-05-12T00:07:38.808Z,74.80
2023-05-12T00:10:06.303Z,74.90
2023-05-12T00:12:33.338Z,75.10
2023-05-12T00:15:01.307Z,75.20
2023-05-12T00:17:28.378Z,75.30
2023-05-12T00:19:55.320Z,75.30
2023-05-12T00:22:22.284Z,75.40
2023-05-12T00:24:49.214Z,75.50
2023-05-12T00:27:16.218Z,75.50
2023-05-12T00:29:43.194Z,75.50
2023-05-12T00:32:10.235Z,75.40
2023-05-12T00:34:37.248Z,75.30
2023-05-12T00:37:04.506Z,75.40
2023-05-12T00:39:31.477Z,75.40
2023-05-12T00:41:59.374Z,75.30
2023-05-12T00:44:26.729Z,75.40
2023-05-12T00:46:54.529Z,75.30
2023-05-12T00:49:22.146Z,75.20
2023-05-12T00:51:49.243Z,75.30
2023-05-12T00:54:17.275Z,75.50
2023-05-12T00:56:44.359Z,75.60
2023-05-12T00:59:11.729Z,75.60
2023-05-12T01:01:41.592Z,75.60
2023-05-12T01:04:09.451Z,75.80
2023-05-12T01:06:49.300Z,75.90
2023-05-12T01:09:17.347Z,75.80
2023-05-12T01:11:44.905Z,75.80
2023-05-12T01:14:12.155Z,75.80
2023-05-12T01:16:48.323Z,75.90
2023-05-12T01:19:25.547Z,75.90
2023-05-12T01:21:53.024Z,75.90
2023-05-12T01:24:27.507Z,76.00
2023-05-12T01:26:54.636Z,76.00
2023-05-12T01:29:22.837Z,76.20
2023-05-12T01:31:50.974Z,76.00
2023-05-12T01:34:18.862Z,76.10
2023-05-12T01:36:49.853Z,76.20
2023-05-12T01:39:16.808Z,76.30
2023-05-12T01:41:44.182Z,76.20
2023-05-12T01:44:11.308Z,76.20
2023-05-12T01:46:39.294Z,76.20
2023-05-12T01:49:06.726Z,76.20
2023-05-12T01:51:33.836Z,76.40
2023-05-12T01:54:01.256Z,76.60
2023-05-12T01:56:32.467Z,76.70
2023-05-12T01:58:59.472Z,76.60
2023-05-12T02:01:28.827Z,76.50
2023-05-12T02:03:57.193Z,76.60
2023-05-12T02:06:26.415Z,76.50
2023-05-12T02:08:53.511Z,76.60
2023-05-12T02:11:21.785Z,76.50
2023-05-12T02:13:48.807Z,76.60
2023-05-12T02:16:15.868Z,76.60
2023-05-12T02:18:43.343Z,77.00
2023-05-12T02:21:10.365Z,77.10
2023-05-12T02:23:37.463Z,77.10
2023-05-12T02:26:04.427Z,77.10
2023-05-12T02:28:31.410Z,76.90
2023-05-12T02:30:58.622Z,77.00
2023-05-12T02:33:28.796Z,76.80
2023-05-12T02:35:56.265Z,76.70
2023-05-12T02:38:23.874Z,76.60
2023-05-12T02:40:52.158Z,76.40
2023-05-12T02:43:19.479Z,76.40
2023-05-12T02:45:46.577Z,76.30
2023-05-12T02:48:13.728Z,76.30
2023-05-12T02:50:40.748Z,76.40
2023-05-12T02:53:07.754Z,76.80
2023-05-12T02:55:34.854Z,76.40
2023-05-12T02:58:02.785Z,76.40
2023-05-12T03:00:30.158Z,76.30
2023-05-12T03:02:58.347Z,76.30
2023-05-12T03:05:25.372Z,76.30
2023-05-12T03:07:52.332Z,76.30
2023-05-12T03:10:19.734Z,76.30
2023-05-12T03:12:47.044Z,76.40
2023-05-12T03:15:14.106Z,76.30
2023-05-12T03:17:44.253Z,76.50
2023-05-12T03:20:12.234Z,76.40
2023-05-12T03:22:39.331Z,76.40
2023-05-12T03:25:09.300Z,76.40
2023-05-12T03:27:36.289Z,76.30
2023-05-12T03:30:05.667Z,76.60
2023-05-12T03:32:36.064Z,76.80
2023-05-12T03:35:03.247Z,76.80
2023-05-12T03:37:30.278Z,76.90
2023-05-12T03:39:58.410Z,77.00
2023-05-12T03:42:25.478Z,77.10
2023-05-12T03:44:52.538Z,77.10
2023-05-12T03:47:19.666Z,77.10
2023-05-12T03:49:46.986Z,77.20
2023-05-12T03:52:14.162Z,77.30
2023-05-12T03:54:41.132Z,77.40
2023-05-12T03:57:08.249Z,77.40
2023-05-12T03:59:35.291Z,77.40
2023-05-12T04:02:02.322Z,77.50
2023-05-12T04:04:29.357Z,77.60
2023-05-12T04:06:56.466Z,77.70
2023-05-12T04:09:23.483Z,77.60
2023-05-12T04:11:51.355Z,77.70
2023-05-12T04:14:18.341Z,77.60
2023-05-12T04:16:46.046Z,77.70
2023-05-12T04:19:13.292Z,77.80
2023-05-12T04:21:40.647Z,78.00
2023-05-12T04:24:07.956Z,78.00
2023-05-12T04:26:36.877Z,78.20
2023-05-12T04:29:04.390Z,78.20
2023-05-12T04:31:31.372Z,78.30
2023-05-12T04:33:59.256Z,78.30
2023-05-12T04:36:26.488Z,78.40
2023-05-12T04:38:55.811Z,78.40
2023-05-12T04:41:22.851Z,78.40
2023-05-12T04:46:19.976Z,78.40
2023-05-12T04:48:46.960Z,78.40
2023-05-12T04:51:13.982Z,79.20
2023-05-12T04:53:40.892Z,78.40
2023-05-12T04:56:08.204Z,78.40
2023-05-12T04:58:38.454Z,78.40
2023-05-12T05:01:07.035Z,78.30
2023-05-12T05:03:34.463Z,78.20
2023-05-12T05:06:01.573Z,78.20
2023-05-12T05:08:28.548Z,78.20
2023-05-12T05:10:55.547Z,78.20
2023-05-12T05:13:22.715Z,78.20
2023-05-12T05:15:51.748Z,78.30
2023-05-12T05:18:21.683Z,78.30
2023-05-12T05:20:57.281Z,78.40
2023-05-12T05:23:26.424Z,78.30
2023-05-12T05:25:56.803Z,78.30
2023-05-12T05:28:24.060Z,78.30
2023-05-12T05:30:51.087Z,78.40
2023-05-12T05:33:18.056Z,78.40
2023-05-12T05:35:46.712Z,78.40
2023-05-12T05:38:13.999Z,78.40
2023-05-12T05:40:52.061Z,78.50
2023-05-12T05:43:19.865Z,78.50
2023-05-12T05:45:49.365Z,78.50
2023-05-12T05:48:16.368Z,78.70
2023-05-12T05:50:47.397Z,78.60
2023-05-12T05:53:14.668Z,78.50
2023-05-12T05:55:42.065Z,78.60
2023-05-12T05:58:09.235Z,78.60
2023-05-12T06:00:36.733Z,78.70
2023-05-12T06:03:03.949Z,78.50
2023-05-12T06:05:31.250Z,78.40
2023-05-12T06:07:58.219Z,78.50
2023-05-12T06:10:26.040Z,78.30
2023-05-12T06:12:53.057Z,78.20
2023-05-12T06:15:22.221Z,78.10
2023-05-12T06:17:50.060Z,77.90
2023-05-12T06:20:17.274Z,77.40
2023-05-12T06:22:46.297Z,76.70
2023-05-12T06:25:13.191Z,76.30
2023-05-12T06:27:40.227Z,76.00
2023-05-12T06:30:07.838Z,75.80
2023-05-12T06:32:34.762Z,75.50
2023-05-12T06:35:01.752Z,75.20
2023-05-12T06:37:28.750Z,74.70
2023-05-12T06:39:55.714Z,74.10
2023-05-12T06:42:24.481Z,74.00
2023-05-12T06:44:52.016Z,73.90
2023-05-12T06:47:20.864Z,73.60
2023-05-12T06:49:50.106Z,73.40
2023-05-12T06:52:17.496Z,73.00
2023-05-12T06:54:44.455Z,72.80
2023-05-12T06:57:11.334Z,72.50
2023-05-12T06:59:38.356Z,72.20
2023-05-12T07:02:05.481Z,71.50
2023-05-12T07:04:32.509Z,71.00
2023-05-12T07:06:59.485Z,70.70
2023-05-12T07:09:26.426Z,70.40
2023-05-12T07:11:53.376Z,70.10
2023-05-12T07:14:20.275Z,69.80
2023-05-12T07:16:47.228Z,69.60
2023-05-12T07:19:14.197Z,69.70
2023-05-12T07:21:41.119Z,69.60
2023-05-12T07:24:08.104Z,69.30
2023-05-12T07:26:35.105Z,69.10
2023-05-12T07:29:03.852Z,68.80
2023-05-12T07:31:31.323Z,68.40
2023-05-12T07:33:58.317Z,68.00
2023-05-12T07:36:25.416Z,67.90
2023-05-12T07:38:52.342Z,68.10
2023-05-12T07:41:19.266Z,68.20
2023-05-12T07:43:46.212Z,68.00
2023-05-12T07:46:13.381Z,67.80
2023-05-12T07:48:40.696Z,67.80
2023-05-12T07:51:08.789Z,67.80
2023-05-12T07:53:36.095Z,67.70
2023-05-12T07:56:03.120Z,67.50
2023-05-12T07:58:30.049Z,67.70
2023-05-12T08:00:59.172Z,67.40
2023-05-12T08:03:26.546Z,67.40
2023-05-12T08:05:53.634Z,67.50
2023-05-12T08:08:20.617Z,67.50
2023-05-12T08:10:47.772Z,67.10
2023-05-12T08:13:14.808Z,67.00
2023-05-12T08:15:41.864Z,66.80
2023-05-12T08:18:09.024Z,66.00
2023-05-12T08:20:36.284Z,65.20
2023-05-12T08:23:03.182Z,64.40
2023-05-12T08:25:30.781Z,63.60
2023-05-12T08:27:59.395Z,62.90
2023-05-12T08:30:27.147Z,62.40
2023-05-12T08:32:57.768Z,61.90
2023-05-12T08:35:26.533Z,61.60
2023-05-12T08:37:53.755Z,61.60
2023-05-12T08:40:25.713Z,61.20
2023-05-12T08:43:10.010Z,61.00
2023-05-12T08:45:38.318Z,61.20
2023-05-12T08:48:08.059Z,61.50
2023-05-12T08:50:38.190Z,61.50
2023-05-12T08:53:07.731Z,61.30
2023-05-12T08:55:35.400Z,61.10
2023-05-12T08:58:03.619Z,61.20
2023-05-12T09:00:32.895Z,61.00
2023-05-12T09:03:01.083Z,60.70
2023-05-12T09:05:30.908Z,60.50
2023-05-12T09:07:59.163Z,60.40
2023-05-12T09:10:35.163Z,60.10
2023-05-12T09:13:37.777Z,60.00
2023-05-12T09:16:11.124Z,60.00
2023-05-12T09:18:54.314Z,60.40
2023-05-12T09:21:21.784Z,60.80
2023-05-12T09:24:09.218Z,61.20
2023-05-12T09:26:53.956Z,61.20
2023-05-12T09:29:31.325Z,61.40
2023-05-12T09:32:02.511Z,61.70
2023-05-12T09:34:35.823Z,62.50
2023-05-12T09:37:06.553Z,62.80
2023-05-12T09:39:34.284Z,62.90
2023-05-12T09:42:01.529Z,63.10
2023-05-12T09:44:31.246Z,63.20
2023-05-12T09:47:07.328Z,63.00
2023-05-12T09:49:34.361Z,62.40
2023-05-12T09:52:01.606Z,62.30
2023-05-12T09:54:30.306Z,61.90
2023-05-12T09:57:05.149Z,62.00
2023-05-12T09:59:33.925Z,62.20
2023-05-12T10:02:02.902Z,62.60
2023-05-12T10:04:39.729Z,63.00
2023-05-12T10:07:11.947Z,63.40
2023-05-12T10:09:42.332Z,63.70
2023-05-12T10:12:10.133Z,64.10
2023-05-12T10:14:37.766Z,64.30
2023-05-12T10:17:07.034Z,64.20
2023-05-12T10:19:36.022Z,63.70
2023-05-12T10:22:04.029Z,63.20
2023-05-12T10:24:31.052Z,62.80
2023-05-12T10:26:59.581Z,62.20
2023-05-12T10:29:30.136Z,61.80
2023-05-12T10:31:57.775Z,61.70
2023-05-12T10:34:30.784Z,61.30
2023-05-12T10:36:59.165Z,60.50
2023-05-12T10:39:35.631Z,60.40
2023-05-12T10:42:06.424Z,59.50
2023-05-12T10:44:33.513Z,59.00
2023-05-12T10:47:00.586Z,59.00
2023-05-12T10:49:40.142Z,58.90
2023-05-12T10:52:07.645Z,58.70
2023-05-12T10:54:44.213Z,58.60
2023-05-12T10:57:18.699Z,58.00
2023-05-12T10:59:57.719Z,57.40
2023-05-12T11:02:30.954Z,57.20
2023-05-12T11:05:02.050Z,56.90
2023-05-12T11:07:35.087Z,56.40
2023-05-12T11:10:05.449Z,56.10
2023-05-12T11:12:35.451Z,55.50
2023-05-12T11:15:04.666Z,55.20
2023-05-12T11:17:32.183Z,55.20
2023-05-12T11:20:01.042Z,55.20
2023-05-12T11:22:28.265Z,55.50
2023-05-12T11:24:55.379Z,55.90
2023-05-12T11:27:23.670Z,56.10
2023-05-12T11:30:01.924Z,55.90
2023-05-12T11:32:30.120Z,55.50
2023-05-12T11:35:16.013Z,54.50
2023-05-12T11:37:44.618Z,53.00
2023-05-12T11:40:20.151Z,52.20
2023-05-12T11:42:49.142Z,51.30
2023-05-12T11:45:24.724Z,51.40
2023-05-12T11:47:52.562Z,51.60
2023-05-12T11:50:24.273Z,51.20
2023-05-12T11:52:52.507Z,50.70
2023-05-12T11:55:24.639Z,50.80
2023-05-12T11:58:01.045Z,51.00
2023-05-12T12:00:35.399Z,51.20
2023-05-12T12:03:10.655Z,51.40
2023-05-12T12:05:38.603Z,51.30
2023-05-12T12:08:13.559Z,51.30
2023-05-12T12:10:44.989Z,50.80
2023-05-12T12:13:12.983Z,50.50
2023-05-12T12:15:39.946Z,50.20
2023-05-12T12:18:06.885Z,49.80
2023-05-12T12:20:34.116Z,49.80
2023-05-12T12:23:00.978Z,49.90
2023-05-12T12:25:28.586Z,50.00
2023-05-12T12:27:55.569Z,49.70
2023-05-12T12:30:22.482Z,49.40
2023-05-12T12:32:49.526Z,48.70
2023-05-12T12:35:17.271Z,47.30
2023-05-12T12:37:51.334Z,46.20
2023-05-12T12:40:20.140Z,45.40
2023-05-12T12:42:47.266Z,44.10
2023-05-12T12:45:14.263Z,43.50
2023-05-12T12:47:41.241Z,42.90
2023-05-12T12:50:10.100Z,42.30
2023-05-12T12:52:38.723Z,42.10
2023-05-12T12:55:06.885Z,42.10
2023-05-12T12:57:33.833Z,42.60
2023-05-12T13:00:01.369Z,42.50
2023-05-12T13:02:28.478Z,42.40
2023-05-12T13:04:55.432Z,42.20
2023-05-12T13:07:22.357Z,42.70
2023-05-12T13:09:49.255Z,43.20
2023-05-12T13:12:16.249Z,43.90
2023-05-12T13:14:43.351Z,45.20
2023-05-12T13:17:10.294Z,46.60
2023-05-12T13:19:38.146Z,48.00
2023-05-12T13:22:05.733Z,49.20
2023-05-12T13:24:33.039Z,50.20
2023-05-12T13:27:00.094Z,50.70
2023-05-12T13:29:27.037Z,51.20
2023-05-12T13:31:54.545Z,51.90
2023-05-12T13:34:21.516Z,52.80
2023-05-12T13:36:48.547Z,53.10
2023-05-12T13:39:16.803Z,53.00
2023-05-12T13:41:44.737Z,53.00
2023-05-12T13:44:11.689Z,53.00
2023-05-12T13:46:38.761Z,52.80
2023-05-12T13:49:05.737Z,52.70
2023-05-12T13:51:32.795Z,52.70
2023-05-12T13:53:59.747Z,52.60
2023-05-12T13:56:26.852Z,52.60
2023-05-12T13:58:53.788Z,52.30
2023-05-12T14:01:20.992Z,52.20
2023-05-12T14:03:48.029Z,52.40
2023-05-12T14:06:15.073Z,52.70
2023-05-12T14:08:41.985Z,52.70
2023-05-12T14:11:09.169Z,52.70
2023-05-12T14:13:36.076Z,52.90
2023-05-12T14:16:03.093Z,53.00
2023-05-12T14:18:30.230Z,53.00
2023-05-12T14:20:58.623Z,52.80
2023-05-12T14:23:25.664Z,52.50
2023-05-12T14:25:52.635Z,52.30
2023-05-12T14:28:19.702Z,51.60
2023-05-12T14:30:48.740Z,50.90
2023-05-12T14:33:15.781Z,50.60
2023-05-12T14:35:44.636Z,49.90
2023-05-12T14:38:15.231Z,50.00
2023-05-12T14:40:46.014Z,50.40
2023-05-12T14:43:13.013Z,49.30
2023-05-12T14:45:39.961Z,49.10
2023-05-12T14:48:07.140Z,49.50
2023-05-12T14:50:34.164Z,49.50
2023-05-12T14:53:01.205Z,49.70
2023-05-12T14:55:29.814Z,50.00
2023-05-12T14:57:56.835Z,50.30
2023-05-12T15:00:24.120Z,50.40
2023-05-12T15:02:54.327Z,50.50
2023-05-12T15:05:22.982Z,50.80
2023-05-12T15:07:54.319Z,51.00
2023-05-12T15:10:21.164Z,50.90
2023-05-12T15:12:48.093Z,51.20
2023-05-12T15:15:15.216Z,51.10
2023-05-12T15:17:42.567Z,51.30
2023-05-12T15:20:10.124Z,51.60
2023-05-12T15:22:37.187Z,51.80
2023-05-12T15:25:04.676Z,51.10
2023-05-12T15:27:34.951Z,50.70
2023-05-12T15:30:02.138Z,50.80
2023-05-12T15:32:29.127Z,51.00
2023-05-12T15:34:58.484Z,51.70
2023-05-12T15:37:26.026Z,52.40
2023-05-12T15:39:52.986Z,52.80
2023-05-12T15:42:26.196Z,53.20
2023-05-12T15:44:59.483Z,53.90
2023-05-12T15:47:27.473Z,54.70
2023-05-12T15:49:54.476Z,55.20
2023-05-12T15:52:21.385Z,55.70
2023-05-12T15:54:48.461Z,56.00
2023-05-12T15:57:15.377Z,56.60
2023-05-12T15:59:43.171Z,56.80
2023-05-12T16:02:10.694Z,57.20
2023-05-12T16:04:37.618Z,57.50
2023-05-12T16:07:04.790Z,57.70
2023-05-12T16:09:31.871Z,57.90
2023-05-12T16:11:59.008Z,58.20
2023-05-12T16:14:26.214Z,58.60
2023-05-12T16:16:53.562Z,58.60
2023-05-12T16:19:20.528Z,58.70
2023-05-12T16:21:47.492Z,59.00
2023-05-12T16:24:14.439Z,59.20
2023-05-12T16:26:41.747Z,59.50
2023-05-12T16:29:08.763Z,59.90
2023-05-12T16:31:36.539Z,60.10
2023-05-12T16:34:03.640Z,59.80
2023-05-12T16:36:32.136Z,60.10
2023-05-12T16:38:59.840Z,60.60
2023-05-12T16:41:28.557Z,61.00
2023-05-12T16:43:55.785Z,61.30
2023-05-12T16:46:23.942Z,61.40
2023-05-12T16:48:50.934Z,61.70
2023-05-12T16:51:18.213Z,62.30
2023-05-12T16:53:45.686Z,62.40
2023-05-12T16:56:13.145Z,62.50
2023-05-12T16:58:40.638Z,62.90
2023-05-12T17:01:07.767Z,63.10
2023-05-12T17:03:34.885Z,63.10
2023-05-12T17:06:01.999Z,62.70
2023-05-12T17:08:28.971Z,62.50
2023-05-12T17:10:55.927Z,62.80
2023-05-12T17:13:23.296Z,62.80
2023-05-12T17:15:51.433Z,62.90
2023-05-12T17:18:18.542Z,63.40
2023-05-12T17:20:45.493Z,63.70
2023-05-12T17:23:12.999Z,64.40
2023-05-12T17:25:40.168Z,65.10
2023-05-12T17:28:07.258Z,65.50
2023-05-12T17:30:34.328Z,66.00
2023-05-12T17:33:01.793Z,66.50
2023-05-12T17:35:28.869Z,66.90
2023-05-12T17:37:55.923Z,67.40
2023-05-12T17:40:23.277Z,67.90
2023-05-12T17:42:50.865Z,68.40
2023-05-12T17:45:18.688Z,68.80
2023-05-12T17:47:48.042Z,69.20
2023-05-12T17:50:15.419Z,69.40
2023-05-12T17:52:43.567Z,69.70
2023-05-12T17:55:11.119Z,70.00
2023-05-12T17:57:38.303Z,70.30
2023-05-12T18:00:10.043Z,70.50
2023-05-12T18:02:44.596Z,70.80
2023-05-12T18:05:11.737Z,71.10
2023-05-12T18:07:39.187Z,71.20
2023-05-12T18:10:10.368Z,71.30
2023-05-12T18:12:38.790Z,71.60
2023-05-12T18:15:06.799Z,72.00
2023-05-12T18:17:33.851Z,72.40
2023-05-12T18:20:00.969Z,72.70
2023-05-12T18:22:27.870Z,73.00
2023-05-12T18:24:55.091Z,73.30
2023-05-12T18:27:22.070Z,73.50
2023-05-12T18:29:49.074Z,73.80
2023-05-12T18:32:16.079Z,74.00
2023-05-12T18:34:45.494Z,74.30
2023-05-12T18:37:15.576Z,74.60
2023-05-12T18:39:43.286Z,74.80
2023-05-12T18:42:11.252Z,75.00
2023-05-12T18:44:40.708Z,75.30
2023-05-12T18:47:08.664Z,75.50
2023-05-12T18:49:36.254Z,75.50
2023-05-12T18:52:03.927Z,75.80
2023-05-12T18:54:31.017Z,75.90
2023-05-12T18:56:58.172Z,76.20
2023-05-12T18:59:25.448Z,76.20
2023-05-12T19:01:52.528Z,76.50
2023-05-12T19:04:19.772Z,76.60
2023-05-12T19:06:46.939Z,76.80
2023-05-12T19:09:14.071Z,77.00
2023-05-12T19:11:40.995Z,77.10
2023-05-12T19:14:07.972Z,77.20
2023-05-12T19:16:36.366Z,77.30
2023-05-12T19:19:03.578Z,77.50
2023-05-12T19:21:32.410Z,77.40
2023-05-12T19:24:01.223Z,77.40
2023-05-12T19:26:28.498Z,77.40
2023-05-12T19:28:55.593Z,77.40
2023-05-12T19:31:22.702Z,77.40
2023-05-12T19:33:49.769Z,77.60
2023-05-12T19:36:17.475Z,77.60
2023-05-12T19:38:44.508Z,77.70
2023-05-12T19:41:12.164Z,77.80
2023-05-12T19:43:39.152Z,77.80
2023-05-12T19:46:06.238Z,77.90
2023-05-12T19:48:33.286Z,78.00
2023-05-12T19:51:00.611Z,78.00
2023-05-12T19:53:27.700Z,78.10
2023-05-12T19:55:55.169Z,78.20
2023-05-12T19:58:22.106Z,78.30
2023-05-12T20:00:49.300Z,78.20
2023-05-12T20:03:16.403Z,78.20
2023-05-12T20:05:43.510Z,78.20
2023-05-12T20:08:10.572Z,78.20
2023-05-12T20:10:37.577Z,78.20
2023-05-12T20:13:04.784Z,78.10
2023-05-12T20:15:32.270Z,78.30
2023-05-12T20:17:59.255Z,78.40
2023-05-12T20:20:26.372Z,78.40
2023-05-12T20:22:53.437Z,78.40
2023-05-12T20:25:20.775Z,78.40
2023-05-12T20:27:48.268Z,78.40
2023-05-12T20:30:15.234Z,78.40
2023-05-12T20:32:43.686Z,78.40
2023-05-12T20:35:10.809Z,78.50
2023-05-12T20:37:39.043Z,78.80
2023-05-12T20:40:07.194Z,78.80
2023-05-12T20:42:34.216Z,78.90
2023-05-12T20:45:01.574Z,79.00
2023-05-12T20:47:30.409Z,79.40
2023-05-12T20:49:57.718Z,79.50
2023-05-12T20:52:28.879Z,79.60
2023-05-12T20:54:58.035Z,79.80
2023-05-12T20:57:26.121Z,79.90
2023-05-12T20:59:53.058Z,80.00
2023-05-12T21:02:20.078Z,80.30
2023-05-12T21:04:47.118Z,80.30
2023-05-12T21:07:14.109Z,80.40
2023-05-12T21:09:41.371Z,80.60
2023-05-12T21:12:08.866Z,80.70
2023-05-12T21:14:45.121Z,80.90
2023-05-12T21:17:13.003Z,81.10
2023-05-12T21:19:40.857Z,81.30
2023-05-12T21:22:10.453Z,81.40
2023-05-12T21:24:39.382Z,81.60
2023-05-12T21:27:08.271Z,81.60
2023-05-12T21:29:35.667Z,81.70
2023-05-12T21:32:02.837Z,81.80
2023-05-12T21:34:30.088Z,82.00
2023-05-12T21:36:57.006Z,82.20
2023-05-12T21:39:23.913Z,82.20
2023-05-12T21:41:50.885Z,82.40
2023-05-12T21:44:27.075Z,82.50
2023-05-12T21:46:54.506Z,82.70
2023-05-12T21:49:21.927Z,82.90
2023-05-12T21:51:48.921Z,82.90
2023-05-12T21:54:15.850Z,83.00
2023-05-12T21:56:43.254Z,83.00
2023-05-12T21:59:10.635Z,83.10
2023-05-12T22:01:37.701Z,83.20
2023-05-12T22:04:07.199Z,83.20
2023-05-12T22:06:35.075Z,83.30
2023-05-12T22:09:02.067Z,83.20
2023-05-12T22:11:29.118Z,83.40
2023-05-12T22:13:56.168Z,83.40
2023-05-12T22:16:28.547Z,83.40
2023-05-12T22:19:05.514Z,83.50
2023-05-12T22:21:32.937Z,83.80
2023-05-12T22:23:59.895Z,83.90
2023-05-12T22:26:26.784Z,84.00
2023-05-12T22:28:53.810Z,84.10
2023-05-12T22:31:21.145Z,84.10
2023-05-12T22:33:48.229Z,84.10
2023-05-12T22:36:15.761Z,84.40
2023-05-12T22:38:42.783Z,84.50
2023-05-12T22:41:10.040Z,84.50
2023-05-12T22:43:37.179Z,84.60
2023-05-12T22:46:05.949Z,84.60
2023-05-12T22:48:38.611Z,84.50
2023-05-12T22:51:06.251Z,84.60
2023-05-12T22:53:33.636Z,84.70
2023-05-12T22:56:00.588Z,84.90
2023-05-12T22:58:27.677Z,84.80
2023-05-12T23:00:54.690Z,84.70
2023-05-12T23:03:21.598Z,84.80
2023-05-12T23:05:48.544Z,85.00
2023-05-12T23:08:15.463Z,85.10
2023-05-12T23:10:42.433Z,85.00
2023-05-12T23:13:09.308Z,85.00
2023-05-12T23:15:36.275Z,84.90
2023-05-12T23:18:03.286Z,84.70
2023-05-12T23:20:30.371Z,84.70
2023-05-12T23:22:57.223Z,84.60
2023-05-12T23:25:24.195Z,84.60
2023-05-12T23:27:51.195Z,84.50
2023-05-12T23:30:18.291Z,84.40
2023-05-12T23:32:45.750Z,84.30
2023-05-12T23:35:12.733Z,84.30
2023-05-12T23:37:39.731Z,84.40
2023-05-12T23:40:07.447Z,84.40
2023-05-12T23:42:34.428Z,84.60
2023-05-12T23:45:01.366Z,84.70
2023-05-12T23:47:28.726Z,84.80
2023-05-12T23:49:55.922Z,84.80
2023-05-12T23:52:22.928Z,84.80
2023-05-12T23:54:49.852Z,85.40
2023-05-12T23:57:16.875Z,84.60
2023-05-12T23:59:44.623Z,84.50
